createdAt,value
2023-07-25T04:01:22.704Z,993.35
2023-07-25T04:02:23.670Z,993.34
2023-07-25T04:03:27.082Z,993.34
2023-07-25T04:04:23.686Z,993.33
2023-07-25T04:05:23.646Z,993.34
2023-07-25T04:06:23.637Z,993.34
2023-07-25T04:07:23.606Z,993.34
2023-07-25T04:08:23.580Z,993.34
2023-07-25T04:09:23.567Z,993.34
2023-07-25T04:10:23.624Z,993.35
2023-07-25T04:11:23.630Z,993.35
2023-07-25T04:12:23.563Z,993.35
2023-07-25T04:13:23.529Z,993.35
2023-07-25T04:14:23.520Z,993.36
2023-07-25T04:15:23.527Z,993.35
2023-07-25T04:16:23.527Z,993.35
2023-07-25T04:17:23.509Z,993.33
2023-07-25T04:18:23.468Z,993.33
2023-07-25T04:19:23.492Z,993.33
2023-07-25T04:20:23.458Z,993.35
2023-07-25T04:21:23.452Z,993.34
2023-07-25T04:22:23.426Z,993.32
2023-07-25T04:23:23.432Z,993.30
2023-07-25T04:24:23.478Z,993.27
2023-07-25T04:25:23.455Z,993.27
2023-07-25T04:26:23.391Z,993.28
2023-07-25T04:27:23.374Z,993.28
2023-07-25T04:28:23.360Z,993.29
2023-07-25T04:29:23.375Z,993.29
2023-07-25T04:30:23.339Z,993.27
2023-07-25T04:31:23.342Z,993.24
2023-07-25T04:32:23.350Z,993.21
2023-07-25T04:33:23.342Z,993.19
2023-07-25T04:34:23.354Z,993.18
2023-07-25T04:35:23.311Z,993.16
2023-07-25T04:36:23.355Z,993.16
2023-07-25T04:37:23.272Z,993.15
2023-07-25T04:38:23.271Z,993.14
2023-07-25T04:39:23.277Z,993.15
2023-07-25T04:40:23.241Z,993.16
2023-07-25T04:41:23.237Z,993.19
2023-07-25T04:42:23.229Z,993.20
2023-07-25T04:43:23.219Z,993.21
2023-07-25T04:44:23.203Z,993.22
2023-07-25T04:45:23.194Z,993.21
2023-07-25T04:46:23.217Z,993.20
2023-07-25T04:47:23.188Z,993.21
2023-07-25T04:48:23.304Z,993.21
2023-07-25T04:49:23.154Z,993.22
2023-07-25T04:50:23.141Z,993.20
2023-07-25T04:51:23.126Z,993.19
2023-07-25T04:52:23.127Z,993.18
2023-07-25T04:53:23.112Z,993.18
2023-07-25T04:54:23.091Z,993.17
2023-07-25T04:55:23.088Z,993.16
2023-07-25T04:56:23.074Z,993.17
2023-07-25T04:57:23.082Z,993.18
2023-07-25T04:58:23.062Z,993.18
2023-07-25T04:59:23.059Z,993.19
2023-07-25T05:00:25.117Z,993.19
2023-07-25T05:01:23.081Z,993.21
2023-07-25T05:02:23.041Z,993.21
2023-07-25T05:03:23.125Z,993.21
2023-07-25T05:04:22.994Z,993.20
2023-07-25T05:05:22.997Z,993.19
2023-07-25T05:06:22.982Z,993.17
2023-07-25T05:07:22.988Z,993.16
2023-07-25T05:08:22.950Z,993.15
2023-07-25T05:09:22.950Z,993.15
2023-07-25T05:10:22.917Z,993.14
2023-07-25T05:11:22.946Z,993.14
2023-07-25T05:12:22.901Z,993.16
2023-07-25T05:13:22.905Z,993.17
2023-07-25T05:14:22.878Z,993.18
2023-07-25T05:15:22.874Z,993.19
2023-07-25T05:16:22.887Z,993.20
2023-07-25T05:17:22.870Z,993.21
2023-07-25T05:18:22.834Z,993.22
2023-07-25T05:19:22.838Z,993.22
2023-07-25T05:20:22.821Z,993.22
2023-07-25T05:21:22.832Z,993.20
2023-07-25T05:22:22.801Z,993.19
2023-07-25T05:23:22.805Z,993.18
2023-07-25T05:24:22.799Z,993.17
2023-07-25T05:25:22.801Z,993.15
2023-07-25T05:26:22.764Z,993.15
2023-07-25T05:27:22.758Z,993.14
2023-07-25T05:28:22.738Z,993.13
2023-07-25T05:29:22.732Z,993.13
2023-07-25T05:30:22.724Z,993.14
2023-07-25T05:31:22.732Z,993.14
2023-07-25T05:32:22.877Z,993.16
2023-07-25T05:33:22.686Z,993.18
2023-07-25T05:34:22.665Z,993.21
2023-07-25T05:35:22.676Z,993.22
2023-07-25T05:36:22.648Z,993.23
2023-07-25T05:37:22.661Z,993.23
2023-07-25T05:38:22.620Z,993.24
2023-07-25T05:39:22.653Z,993.24
2023-07-25T05:40:22.629Z,993.26
2023-07-25T05:41:22.588Z,993.27
2023-07-25T05:42:22.575Z,993.27
2023-07-25T05:43:22.572Z,993.27
2023-07-25T05:44:22.573Z,993.26
2023-07-25T05:45:22.557Z,993.26
2023-07-25T05:46:22.539Z,993.23
2023-07-25T05:47:22.549Z,993.22
2023-07-25T05:48:22.505Z,993.25
2023-07-25T05:49:22.525Z,993.27
2023-07-25T05:50:22.482Z,993.29
2023-07-25T05:51:22.476Z,993.30
2023-07-25T05:52:22.470Z,993.33
2023-07-25T05:53:22.474Z,993.35
2023-07-25T05:54:22.463Z,993.36
2023-07-25T05:55:22.431Z,993.37
2023-07-25T05:56:22.416Z,993.38
2023-07-25T05:57:22.426Z,993.39
2023-07-25T05:58:22.487Z,993.40
2023-07-25T05:59:22.405Z,993.41
2023-07-25T06:00:22.650Z,993.43
2023-07-25T06:01:22.401Z,993.45
2023-07-25T06:02:22.370Z,993.47
2023-07-25T06:03:22.398Z,993.49
2023-07-25T06:04:22.335Z,993.49
2023-07-25T06:05:22.349Z,993.51
2023-07-25T06:06:22.318Z,993.53
2023-07-25T06:07:23.971Z,993.53
2023-07-25T06:08:22.298Z,993.54
2023-07-25T06:09:22.281Z,993.56
2023-07-25T06:10:22.264Z,993.56
2023-07-25T06:11:22.335Z,993.55
2023-07-25T06:12:22.238Z,993.55
2023-07-25T06:13:22.299Z,993.56
2023-07-25T06:14:22.216Z,993.58
2023-07-25T06:15:22.214Z,993.59
2023-07-25T06:16:22.329Z,993.61
2023-07-25T06:17:22.248Z,993.60
2023-07-25T06:18:22.198Z,993.59
2023-07-25T06:19:22.163Z,993.57
2023-07-25T06:20:22.154Z,993.55
2023-07-25T06:21:22.142Z,993.55
2023-07-25T06:22:22.146Z,993.55
2023-07-25T06:23:22.122Z,993.56
2023-07-25T06:24:22.145Z,993.58
2023-07-25T06:25:22.099Z,993.59
2023-07-25T06:26:22.095Z,993.59
2023-07-25T06:27:24.305Z,993.59
2023-07-25T06:28:22.528Z,993.57
2023-07-25T06:29:22.054Z,993.57
2023-07-25T06:30:22.043Z,993.56
2023-07-25T06:31:22.176Z,993.56
2023-07-25T06:32:22.048Z,993.54
2023-07-25T06:33:22.004Z,993.55
2023-07-25T06:34:22.028Z,993.55
2023-07-25T06:35:21.989Z,993.55
2023-07-25T06:36:21.985Z,993.56
2023-07-25T06:37:21.974Z,993.58
2023-07-25T06:38:21.948Z,993.59
2023-07-25T06:39:21.940Z,993.60
2023-07-25T06:40:21.935Z,993.62
2023-07-25T06:41:21.936Z,993.64
2023-07-25T06:42:21.911Z,993.65
2023-07-25T06:43:21.900Z,993.66
2023-07-25T06:44:21.874Z,993.66
2023-07-25T06:45:21.884Z,993.68
2023-07-25T06:46:21.885Z,993.68
2023-07-25T06:47:21.851Z,993.70
2023-07-25T06:48:21.845Z,993.71
2023-07-25T06:49:21.826Z,993.72
2023-07-25T06:50:21.838Z,993.71
2023-07-25T06:51:21.833Z,993.70
2023-07-25T06:52:21.795Z,993.71
2023-07-25T06:53:21.792Z,993.69
2023-07-25T06:54:21.776Z,993.67
2023-07-25T06:55:21.787Z,993.66
2023-07-25T06:56:21.762Z,993.65
2023-07-25T06:57:21.753Z,993.65
2023-07-25T06:58:21.734Z,993.64
2023-07-25T06:59:21.723Z,993.64
2023-07-25T07:00:21.726Z,993.65
2023-07-25T07:01:21.726Z,993.63
2023-07-25T07:02:21.816Z,993.61
2023-07-25T07:03:21.674Z,993.59
2023-07-25T07:04:21.685Z,993.57
2023-07-25T07:06:21.635Z,993.53
2023-07-25T07:07:21.648Z,993.55
2023-07-25T07:08:21.614Z,993.54
2023-07-25T07:09:21.627Z,993.55
2023-07-25T07:10:21.596Z,993.56
2023-07-25T07:11:21.587Z,993.57
2023-07-25T07:12:21.576Z,993.60
2023-07-25T07:13:21.573Z,993.60
2023-07-25T07:14:21.576Z,993.61
2023-07-25T07:15:21.555Z,993.62
2023-07-25T07:16:21.569Z,993.62
2023-07-25T07:17:21.526Z,993.63
2023-07-25T07:18:21.522Z,993.62
2023-07-25T07:19:21.557Z,993.62
2023-07-25T07:20:21.483Z,993.61
2023-07-25T07:21:21.477Z,993.59
2023-07-25T07:22:21.476Z,993.57
2023-07-25T07:23:21.468Z,993.56
2023-07-25T07:24:21.453Z,993.57
2023-07-25T07:25:21.462Z,993.59
2023-07-25T07:26:21.443Z,993.59
2023-07-25T07:27:21.416Z,993.60
2023-07-25T07:28:21.417Z,993.62
2023-07-25T07:29:21.396Z,993.63
2023-07-25T07:30:21.378Z,993.64
2023-07-25T07:31:21.385Z,993.66
2023-07-25T07:32:21.440Z,993.65
2023-07-25T07:33:21.363Z,993.65
2023-07-25T07:34:21.329Z,993.65
2023-07-25T07:35:21.334Z,993.64
2023-07-25T07:36:21.331Z,993.64
2023-07-25T07:37:21.342Z,993.63
2023-07-25T07:38:21.292Z,993.63
2023-07-25T07:39:21.289Z,993.62
2023-07-25T07:40:21.278Z,993.61
2023-07-25T07:41:21.272Z,993.60
2023-07-25T07:42:21.261Z,993.60
2023-07-25T07:43:21.248Z,993.60
2023-07-25T07:44:22.536Z,993.58
2023-07-25T07:45:21.223Z,993.58
2023-07-25T07:46:21.282Z,993.58
2023-07-25T07:47:21.204Z,993.61
2023-07-25T07:48:21.189Z,993.59
2023-07-25T07:49:21.168Z,993.58
2023-07-25T07:50:21.168Z,993.57
2023-07-25T07:51:21.199Z,993.57
2023-07-25T07:52:29.497Z,993.59
2023-07-25T07:53:21.151Z,993.59
2023-07-25T07:54:21.119Z,993.58
2023-07-25T07:55:21.108Z,993.57
2023-07-25T07:56:21.109Z,993.55
2023-07-25T07:57:21.100Z,993.53
2023-07-25T07:58:21.083Z,993.54
2023-07-25T07:59:21.075Z,993.55
2023-07-25T08:00:21.136Z,993.53
2023-07-25T08:01:21.085Z,993.51
2023-07-25T08:02:21.067Z,993.49
2023-07-25T08:03:21.030Z,993.50
2023-07-25T08:04:21.062Z,993.50
2023-07-25T08:05:21.016Z,993.51
2023-07-25T08:06:21.014Z,993.57
2023-07-25T08:07:21.014Z,993.56
2023-07-25T08:08:20.967Z,993.57
2023-07-25T08:09:20.964Z,993.61
2023-07-25T08:10:20.969Z,993.61
2023-07-25T08:11:21.018Z,993.61
2023-07-25T08:12:20.997Z,993.62
2023-07-25T08:13:20.915Z,993.61
2023-07-25T08:14:20.911Z,993.60
2023-07-25T08:15:20.916Z,993.60
2023-07-25T08:16:21.501Z,993.60
2023-07-25T08:17:20.893Z,993.60
2023-07-25T08:18:20.857Z,993.60
2023-07-25T08:19:20.840Z,993.62
2023-07-25T08:20:20.857Z,993.64
2023-07-25T08:21:20.829Z,993.64
2023-07-25T08:22:20.827Z,993.65
2023-07-25T08:23:20.804Z,993.65
2023-07-25T08:24:20.861Z,993.66
2023-07-25T08:25:20.799Z,993.69
2023-07-25T08:26:20.776Z,993.69
2023-07-25T08:27:20.783Z,993.68
2023-07-25T08:28:20.763Z,993.70
2023-07-25T08:29:20.762Z,993.71
2023-07-25T08:30:20.754Z,993.72
2023-07-25T08:31:20.716Z,993.71
2023-07-25T08:32:20.777Z,993.71
2023-07-25T08:33:20.698Z,993.70
2023-07-25T08:34:20.715Z,993.69
2023-07-25T08:35:20.689Z,993.70
2023-07-25T08:36:20.673Z,993.68
2023-07-25T08:37:20.649Z,993.69
2023-07-25T08:38:20.646Z,993.69
2023-07-25T08:39:20.641Z,993.68
2023-07-25T08:40:20.624Z,993.68
2023-07-25T08:41:20.611Z,993.69
2023-07-25T08:42:20.605Z,993.70
2023-07-25T08:43:20.597Z,993.70
2023-07-25T08:44:20.589Z,993.69
2023-07-25T08:45:20.561Z,993.68
2023-07-25T08:46:20.647Z,993.67
2023-07-25T08:47:20.550Z,993.66
2023-07-25T08:48:23.015Z,993.64
2023-07-25T08:49:20.522Z,993.63
2023-07-25T08:50:20.516Z,993.63
2023-07-25T08:51:20.502Z,993.62
2023-07-25T08:52:20.489Z,993.61
2023-07-25T08:53:20.491Z,993.63
2023-07-25T08:54:22.118Z,993.63
2023-07-25T08:55:20.464Z,993.63
2023-07-25T08:56:20.459Z,993.65
2023-07-25T08:57:20.443Z,993.64
2023-07-25T08:58:20.446Z,993.65
2023-07-25T08:59:20.439Z,993.64
2023-07-25T09:00:22.218Z,993.64
2023-07-25T09:01:20.442Z,993.66
2023-07-25T09:02:20.405Z,993.66
2023-07-25T09:03:20.558Z,993.66
2023-07-25T09:04:20.357Z,993.68
2023-07-25T09:05:20.340Z,993.69
2023-07-25T09:06:20.343Z,993.68
2023-07-25T09:07:20.356Z,993.70
2023-07-25T09:08:20.315Z,993.70
2023-07-25T09:09:20.330Z,993.70
2023-07-25T09:10:20.327Z,993.71
2023-07-25T09:11:20.298Z,993.71
2023-07-25T09:12:20.304Z,993.70
2023-07-25T09:13:20.256Z,993.70
2023-07-25T09:14:20.255Z,993.70
2023-07-25T09:15:20.238Z,993.71
2023-07-25T09:16:20.316Z,993.71
2023-07-25T09:17:20.220Z,993.71
2023-07-25T09:18:20.209Z,993.71
2023-07-25T09:19:20.195Z,993.69
2023-07-25T09:20:20.254Z,993.68
2023-07-25T09:21:20.348Z,993.67
2023-07-25T09:22:20.155Z,993.67
2023-07-25T09:23:20.147Z,993.67
2023-07-25T09:24:20.156Z,993.69
2023-07-25T09:25:20.123Z,993.70
2023-07-25T09:26:20.139Z,993.71
2023-07-25T09:27:20.143Z,993.73
2023-07-25T09:28:20.109Z,993.72
2023-07-25T09:29:20.082Z,993.72
2023-07-25T09:30:20.079Z,993.72
2023-07-25T09:31:20.126Z,993.73
2023-07-25T09:32:20.118Z,993.74
2023-07-25T09:33:20.041Z,993.78
2023-07-25T09:34:20.032Z,993.75
2023-07-25T09:35:20.035Z,993.74
2023-07-25T09:36:20.028Z,993.73
2023-07-25T09:37:20.017Z,993.71
2023-07-25T09:38:20.000Z,993.69
2023-07-25T09:39:19.980Z,993.69
2023-07-25T09:40:19.989Z,993.69
2023-07-25T09:41:19.966Z,993.67
2023-07-25T09:42:19.982Z,993.66
2023-07-25T09:43:19.949Z,993.66
2023-07-25T09:44:19.932Z,993.66
2023-07-25T09:45:19.975Z,993.65
2023-07-25T09:46:19.929Z,993.65
2023-07-25T09:47:19.894Z,993.65
2023-07-25T09:48:19.892Z,993.67
2023-07-25T09:49:19.898Z,993.66
2023-07-25T09:50:19.879Z,993.64
2023-07-25T09:51:19.854Z,993.63
2023-07-25T09:52:19.850Z,993.64
2023-07-25T09:53:19.829Z,993.64
2023-07-25T09:54:19.836Z,993.64
2023-07-25T09:55:19.828Z,993.64
2023-07-25T09:56:19.802Z,993.64
2023-07-25T09:57:19.786Z,993.63
2023-07-25T09:58:19.802Z,993.61
2023-07-25T09:59:19.795Z,993.62
2023-07-25T10:00:19.761Z,993.63
2023-07-25T10:01:19.819Z,993.62
2023-07-25T10:02:19.758Z,993.60
2023-07-25T10:03:19.786Z,993.58
2023-07-25T10:04:19.748Z,993.56
2023-07-25T10:05:19.705Z,993.54
2023-07-25T10:06:19.694Z,993.54
2023-07-25T10:07:19.687Z,993.54
2023-07-25T10:08:19.706Z,993.51
2023-07-25T10:09:19.662Z,993.54
2023-07-25T10:10:19.653Z,993.56
2023-07-25T10:11:19.638Z,993.57
2023-07-25T10:12:19.644Z,993.56
2023-07-25T10:13:19.669Z,993.55
2023-07-25T10:14:19.624Z,993.55
2023-07-25T10:15:19.614Z,993.55
2023-07-25T10:16:19.629Z,993.54
2023-07-25T10:17:19.600Z,993.55
2023-07-25T10:18:19.591Z,993.56
2023-07-25T10:19:19.556Z,993.57
2023-07-25T10:20:19.550Z,993.58
2023-07-25T10:21:19.539Z,993.61
2023-07-25T10:22:19.523Z,993.64
2023-07-25T10:23:19.547Z,993.64
2023-07-25T10:24:19.541Z,993.63
2023-07-25T10:25:19.494Z,993.61
2023-07-25T10:26:19.493Z,993.60
2023-07-25T10:27:19.471Z,993.59
2023-07-25T10:28:19.473Z,993.58
2023-07-25T10:29:19.451Z,993.59
2023-07-25T10:30:19.455Z,993.62
2023-07-25T10:31:19.475Z,993.62
2023-07-25T10:32:19.434Z,993.60
2023-07-25T10:33:19.446Z,993.57
2023-07-25T10:34:19.413Z,993.55
2023-07-25T10:35:19.393Z,993.54
2023-07-25T10:36:19.388Z,993.54
2023-07-25T10:37:19.385Z,993.54
2023-07-25T10:38:19.363Z,993.54
2023-07-25T10:39:19.349Z,993.56
2023-07-25T10:40:19.349Z,993.54
2023-07-25T10:41:19.327Z,993.54
2023-07-25T10:42:19.329Z,993.53
2023-07-25T10:43:19.310Z,993.53
2023-07-25T10:44:19.313Z,993.51
2023-07-25T10:45:19.318Z,993.52
2023-07-25T10:46:19.550Z,993.52
2023-07-25T10:47:19.568Z,993.54
2023-07-25T10:48:19.294Z,993.53
2023-07-25T10:49:19.253Z,993.54
2023-07-25T10:50:19.242Z,993.55
2023-07-25T10:51:19.234Z,993.54
2023-07-25T10:52:19.219Z,993.55
2023-07-25T10:53:19.214Z,993.59
2023-07-25T10:54:19.201Z,993.62
2023-07-25T10:55:19.177Z,993.61
2023-07-25T10:56:19.190Z,993.60
2023-07-25T10:57:19.192Z,993.58
2023-07-25T10:58:19.168Z,993.58
2023-07-25T10:59:19.141Z,993.58
2023-07-25T11:00:19.167Z,993.58
2023-07-25T11:01:19.208Z,993.58
2023-07-25T11:02:19.112Z,993.57
2023-07-25T11:03:19.096Z,993.57
2023-07-25T11:04:19.132Z,993.60
2023-07-25T11:05:19.112Z,993.63
2023-07-25T11:06:19.093Z,993.64
2023-07-25T11:07:19.049Z,993.63
2023-07-25T11:08:19.037Z,993.63
2023-07-25T11:09:19.041Z,993.63
2023-07-25T11:10:19.101Z,993.62
2023-07-25T11:11:19.014Z,993.63
2023-07-25T11:12:19.006Z,993.64
2023-07-25T11:13:18.984Z,993.63
2023-07-25T11:14:19.084Z,993.62
2023-07-25T11:15:23.649Z,993.63
2023-07-25T11:16:19.009Z,993.61
2023-07-25T11:17:18.942Z,993.63
2023-07-25T11:18:18.944Z,993.63
2023-07-25T11:19:18.986Z,993.66
2023-07-25T11:20:18.929Z,993.65
2023-07-25T11:21:18.906Z,993.65
2023-07-25T11:22:18.901Z,993.65
2023-07-25T11:23:18.884Z,993.66
2023-07-25T11:24:18.921Z,993.65
2023-07-25T11:25:18.862Z,993.66
2023-07-25T11:26:18.914Z,993.65
2023-07-25T11:27:18.839Z,993.64
2023-07-25T11:28:18.835Z,993.65
2023-07-25T11:29:18.828Z,993.65
2023-07-25T11:30:18.812Z,993.63
2023-07-25T11:31:18.865Z,993.65
2023-07-25T11:32:18.804Z,993.65
2023-07-25T11:33:18.801Z,993.65
2023-07-25T11:34:18.791Z,993.67
2023-07-25T11:35:18.761Z,993.66
2023-07-25T11:36:18.763Z,993.68
2023-07-25T11:37:18.734Z,993.71
2023-07-25T11:38:18.765Z,993.69
2023-07-25T11:39:18.711Z,993.71
2023-07-25T11:40:18.708Z,993.73
2023-07-25T11:41:18.695Z,993.73
2023-07-25T11:42:19.206Z,993.73
2023-07-25T11:43:18.708Z,993.76
2023-07-25T11:44:18.690Z,993.75
2023-07-25T11:45:18.687Z,993.76
2023-07-25T11:46:18.741Z,993.73
2023-07-25T11:47:18.655Z,993.73
2023-07-25T11:48:18.620Z,993.74
2023-07-25T11:49:28.327Z,993.72
2023-07-25T11:50:26.944Z,993.71
2023-07-25T11:51:18.588Z,993.73
2023-07-25T11:52:18.589Z,993.73
2023-07-25T11:53:18.577Z,993.74
2023-07-25T11:54:18.563Z,993.74
2023-07-25T11:55:18.561Z,993.75
2023-07-25T11:56:18.555Z,993.74
2023-07-25T11:57:18.549Z,993.73
2023-07-25T11:58:18.512Z,993.75
2023-07-25T11:59:18.504Z,993.73
2023-07-25T12:00:18.493Z,993.76
2023-07-25T12:01:18.559Z,993.75
2023-07-25T12:02:18.502Z,993.81
2023-07-25T12:03:18.491Z,993.80
2023-07-25T12:04:18.534Z,993.84
2023-07-25T12:05:18.435Z,993.84
2023-07-25T12:06:18.449Z,993.86
2023-07-25T12:07:20.723Z,993.86
2023-07-25T12:08:18.436Z,993.84
2023-07-25T12:09:18.392Z,993.83
2023-07-25T12:10:18.418Z,993.85
2023-07-25T12:11:18.412Z,993.81
2023-07-25T12:12:18.369Z,993.81
2023-07-25T12:13:18.365Z,993.79
2023-07-25T12:14:18.352Z,993.78
2023-07-25T12:15:18.381Z,993.76
2023-07-25T12:16:18.365Z,993.80
2023-07-25T12:17:18.311Z,993.79
2023-07-25T12:18:18.309Z,993.80
2023-07-25T12:19:18.294Z,993.80
2023-07-25T12:20:18.328Z,993.80
2023-07-25T12:21:18.281Z,993.81
2023-07-25T12:22:18.270Z,993.80
2023-07-25T12:23:18.262Z,993.81
2023-07-25T12:24:18.391Z,993.79
2023-07-25T12:25:18.242Z,993.83
2023-07-25T12:26:18.224Z,993.81
2023-07-25T12:27:18.217Z,993.84
2023-07-25T12:28:18.216Z,993.85
2023-07-25T12:29:18.323Z,993.81
2023-07-25T12:30:18.195Z,993.83
2023-07-25T12:31:18.169Z,993.84
2023-07-25T12:32:18.147Z,993.85
2023-07-25T12:33:18.273Z,993.86
2023-07-25T12:34:18.146Z,993.86
2023-07-25T12:35:18.126Z,993.87
2023-07-25T12:36:18.123Z,993.86
2023-07-25T12:37:18.103Z,993.85
2023-07-25T12:38:18.129Z,993.88
2023-07-25T12:39:18.097Z,993.87
2023-07-25T12:40:18.062Z,993.89
2023-07-25T12:41:18.075Z,993.86
2023-07-25T12:42:18.036Z,993.87
2023-07-25T12:43:18.057Z,993.89
2023-07-25T12:44:18.027Z,993.91
2023-07-25T12:45:18.010Z,993.91
2023-07-25T12:46:18.087Z,993.90
2023-07-25T12:47:17.994Z,993.90
2023-07-25T12:48:17.998Z,993.90
2023-07-25T12:49:17.977Z,993.92
2023-07-25T12:50:17.958Z,993.91
2023-07-25T12:51:17.946Z,993.87
2023-07-25T12:52:17.936Z,993.85
2023-07-25T12:53:17.950Z,993.83
2023-07-25T12:54:17.909Z,993.82
2023-07-25T12:55:17.911Z,993.80
2023-07-25T12:56:17.890Z,993.80
2023-07-25T12:57:17.898Z,993.77
2023-07-25T12:58:17.889Z,993.76
2023-07-25T12:59:17.867Z,993.74
2023-07-25T13:00:17.865Z,993.73
2023-07-25T13:01:17.842Z,993.75
2023-07-25T13:02:17.864Z,993.79
2023-07-25T13:03:17.944Z,993.80
2023-07-25T13:04:18.002Z,993.84
2023-07-25T13:05:19.055Z,993.82
2023-07-25T13:06:17.773Z,993.83
2023-07-25T13:07:17.802Z,993.87
2023-07-25T13:08:17.934Z,993.93
2023-07-25T13:09:17.751Z,993.93
2023-07-25T13:10:17.728Z,993.96
2023-07-25T13:11:17.745Z,994.00
2023-07-25T13:12:17.727Z,994.02
2023-07-25T13:13:17.695Z,994.07
2023-07-25T13:14:17.690Z,994.06
2023-07-25T13:15:17.678Z,994.05
2023-07-25T13:16:17.699Z,994.07
2023-07-25T13:17:17.666Z,994.10
2023-07-25T13:18:17.640Z,994.10
2023-07-25T13:19:17.644Z,994.10
2023-07-25T13:20:17.655Z,994.11
2023-07-25T13:21:17.661Z,994.12
2023-07-25T13:22:17.599Z,994.15
2023-07-25T13:23:17.610Z,994.16
2023-07-25T13:24:17.612Z,994.15
2023-07-25T13:25:17.598Z,994.16
2023-07-25T13:26:17.583Z,994.18
2023-07-25T13:27:17.554Z,994.15
2023-07-25T13:28:17.558Z,994.17
2023-07-25T13:29:17.527Z,994.17
2023-07-25T13:30:17.549Z,994.14
2023-07-25T13:31:17.537Z,994.13
2023-07-25T13:32:17.564Z,994.12
2023-07-25T13:33:17.548Z,994.11
2023-07-25T13:34:17.474Z,994.09
2023-07-25T13:35:17.488Z,994.10
2023-07-25T13:36:17.462Z,994.10
2023-07-25T13:37:17.453Z,994.12
2023-07-25T13:38:17.428Z,994.14
2023-07-25T13:39:17.426Z,994.13
2023-07-25T13:40:17.442Z,994.13
2023-07-25T13:41:17.400Z,994.09
2023-07-25T13:42:17.389Z,994.07
2023-07-25T13:43:17.392Z,994.07
2023-07-25T13:44:17.364Z,994.06
2023-07-25T13:45:17.393Z,994.04
2023-07-25T13:46:17.378Z,994.08
2023-07-25T13:47:17.362Z,994.05
2023-07-25T13:48:17.327Z,994.05
2023-07-25T13:49:17.356Z,994.05
2023-07-25T13:50:17.343Z,994.04
2023-07-25T13:51:17.300Z,994.06
2023-07-25T13:52:17.284Z,994.01
2023-07-25T13:53:17.280Z,994.02
2023-07-25T13:54:17.291Z,994.05
2023-07-25T13:55:17.257Z,994.04
2023-07-25T13:56:17.241Z,994.03
2023-07-25T13:57:17.247Z,994.05
2023-07-25T13:59:17.236Z,994.00
2023-07-25T14:00:17.195Z,994.03
2023-07-25T14:01:17.217Z,994.00
2023-07-25T14:02:17.173Z,993.98
2023-07-25T14:03:17.222Z,993.99
2023-07-25T14:04:17.199Z,993.98
2023-07-25T14:05:17.157Z,993.98
2023-07-25T14:06:17.129Z,993.99
2023-07-25T14:07:17.126Z,994.00
2023-07-25T14:08:17.204Z,994.00
2023-07-25T14:09:17.144Z,994.01
2023-07-25T14:10:17.243Z,994.00
2023-07-25T14:11:17.084Z,994.01
2023-07-25T14:12:17.063Z,994.03
2023-07-25T14:13:17.092Z,994.04
2023-07-25T14:14:17.066Z,994.01
2023-07-25T14:15:17.053Z,994.03
2023-07-25T14:16:17.026Z,994.06
2023-07-25T14:17:17.039Z,994.06
2023-07-25T14:18:17.030Z,994.08
2023-07-25T14:19:17.005Z,994.11
2023-07-25T14:20:16.995Z,994.13
2023-07-25T14:21:16.998Z,994.12
2023-07-25T14:22:16.990Z,994.15
2023-07-25T14:23:16.989Z,994.17
2023-07-25T14:24:16.977Z,994.18
2023-07-25T14:25:16.949Z,994.16
2023-07-25T14:26:16.922Z,994.20
2023-07-25T14:27:16.932Z,994.21
2023-07-25T14:28:16.928Z,994.19
2023-07-25T14:29:16.893Z,994.20
2023-07-25T14:30:16.885Z,994.23
2023-07-25T14:31:16.965Z,994.24
2023-07-25T14:32:16.902Z,994.26
2023-07-25T14:33:16.856Z,994.24
2023-07-25T14:34:16.840Z,994.21
2023-07-25T14:35:16.839Z,994.23
2023-07-25T14:36:16.828Z,994.22
2023-07-25T14:37:16.826Z,994.21
2023-07-25T14:38:16.821Z,994.22
2023-07-25T14:39:16.789Z,994.24
2023-07-25T14:40:16.772Z,994.23
2023-07-25T14:41:16.797Z,994.27
2023-07-25T14:42:16.779Z,994.30
2023-07-25T14:43:16.745Z,994.29
2023-07-25T14:44:16.745Z,994.30
2023-07-25T14:45:16.765Z,994.30
2023-07-25T14:46:16.733Z,994.30
2023-07-25T14:47:16.747Z,994.30
2023-07-25T14:48:16.785Z,994.30
2023-07-25T14:49:16.688Z,994.32
2023-07-25T14:50:16.681Z,994.32
2023-07-25T14:51:16.687Z,994.35
2023-07-25T14:52:16.646Z,994.37
2023-07-25T14:53:16.649Z,994.37
2023-07-25T14:54:16.624Z,994.38
2023-07-25T14:55:16.643Z,994.37
2023-07-25T14:56:16.614Z,994.37
2023-07-25T14:57:16.599Z,994.36
2023-07-25T14:58:16.659Z,994.36
2023-07-25T14:59:16.580Z,994.36
2023-07-25T15:00:16.635Z,994.37
2023-07-25T15:01:16.580Z,994.37
2023-07-25T15:02:18.667Z,994.37
2023-07-25T15:03:16.675Z,994.39
2023-07-25T15:04:16.520Z,994.41
2023-07-25T15:05:16.521Z,994.42
2023-07-25T15:06:16.503Z,994.44
2023-07-25T15:07:16.495Z,994.46
2023-07-25T15:08:18.522Z,994.48
2023-07-25T15:09:16.479Z,994.49
2023-07-25T15:10:16.474Z,994.50
2023-07-25T15:11:16.443Z,994.50
2023-07-25T15:12:16.425Z,994.49
2023-07-25T15:13:16.426Z,994.49
2023-07-25T15:14:16.417Z,994.49
2023-07-25T15:15:16.417Z,994.48
2023-07-25T15:16:16.403Z,994.49
2023-07-25T15:17:16.377Z,994.49
2023-07-25T15:18:16.366Z,994.49
2023-07-25T15:19:16.374Z,994.51
2023-07-25T15:20:16.338Z,994.52
2023-07-25T15:21:16.342Z,994.52
2023-07-25T15:22:16.340Z,994.52
2023-07-25T15:23:16.335Z,994.55
2023-07-25T15:24:16.377Z,994.56
2023-07-25T15:25:16.294Z,994.55
2023-07-25T15:26:16.282Z,994.54
2023-07-25T15:27:16.271Z,994.59
2023-07-25T15:28:16.302Z,994.59
2023-07-25T15:29:16.258Z,994.60
2023-07-25T15:30:16.223Z,994.62
2023-07-25T15:31:16.223Z,994.63
2023-07-25T15:32:16.209Z,994.64
2023-07-25T15:33:16.250Z,994.66
2023-07-25T15:34:16.200Z,994.65
2023-07-25T15:35:16.196Z,994.66
2023-07-25T15:36:16.159Z,994.68
2023-07-25T15:37:16.169Z,994.66
2023-07-25T15:38:16.154Z,994.67
2023-07-25T15:39:16.149Z,994.65
2023-07-25T15:40:16.119Z,994.65
2023-07-25T15:41:16.116Z,994.64
2023-07-25T15:42:16.117Z,994.65
2023-07-25T15:43:16.129Z,994.65
2023-07-25T15:44:16.085Z,994.65
2023-07-25T15:45:16.069Z,994.64
2023-07-25T15:46:16.092Z,994.64
2023-07-25T15:47:16.087Z,994.63
2023-07-25T15:48:16.032Z,994.63
2023-07-25T15:49:16.032Z,994.62
2023-07-25T15:50:16.006Z,994.62
2023-07-25T15:51:16.006Z,994.62
2023-07-25T15:52:16.020Z,994.62
2023-07-25T15:53:15.983Z,994.59
2023-07-25T15:54:15.977Z,994.57
2023-07-25T15:55:15.974Z,994.62
2023-07-25T15:56:15.976Z,994.60
2023-07-25T15:57:15.971Z,994.60
2023-07-25T15:58:15.937Z,994.59
2023-07-25T15:59:15.922Z,994.53
2023-07-25T16:00:15.906Z,994.51
2023-07-25T16:01:15.994Z,994.55
2023-07-25T16:02:15.882Z,994.58
2023-07-25T16:03:15.949Z,994.58
2023-07-25T16:04:15.883Z,994.58
2023-07-25T16:05:15.862Z,994.56
2023-07-25T16:06:15.873Z,994.56
2023-07-25T16:07:15.886Z,994.54
2023-07-25T16:08:15.881Z,994.54
2023-07-25T16:09:15.955Z,994.53
2023-07-25T16:10:15.861Z,994.54
2023-07-25T16:11:16.048Z,994.53
2023-07-25T16:12:15.793Z,994.52
2023-07-25T16:13:15.784Z,994.50
2023-07-25T16:14:15.753Z,994.50
2023-07-25T16:15:15.772Z,994.53
2023-07-25T16:16:15.786Z,994.53
2023-07-25T16:17:15.732Z,994.56
2023-07-25T16:18:15.715Z,994.57
2023-07-25T16:19:15.708Z,994.56
2023-07-25T16:20:15.726Z,994.57
2023-07-25T16:21:15.712Z,994.56
2023-07-25T16:22:15.672Z,994.57
2023-07-25T16:23:15.670Z,994.58
2023-07-25T16:24:15.713Z,994.56
2023-07-25T16:25:15.668Z,994.55
2023-07-25T16:26:15.633Z,994.54
2023-07-25T16:27:15.625Z,994.54
2023-07-25T16:28:15.621Z,994.55
2023-07-25T16:29:15.667Z,994.54
2023-07-25T16:30:15.632Z,994.54
2023-07-25T16:32:15.615Z,994.52